Time;durP1;ratioP1;P1;durP2;ratioP2;P2;SDS_P1;SDS_P2;PMS_P1;PMS_P2;Temp;Humidity;BMP_temperature;BMP_pressure;BME280_temperature;BME280_humidity;BME280_pressure;Samples;Min_cycle;Max_cycle;Signal;HPM_P1;HPM_P2
2021/11/16 00:01:25;;;;;;;58.55;32.70;;;7.10;99.30;;;;;;5015847;28;20099;-86
2021/11/16 00:03:55;;;;;;;58.67;32.80;;;7.10;99.30;;;;;;5015287;28;20056;-86
2021/11/16 00:06:23;;;;;;;56.60;32.45;;;7.10;99.30;;;;;;5014836;28;20489;-86
2021/11/16 00:08:49;;;;;;;60.03;32.25;;;7.10;99.30;;;;;;5015738;28;20083;-86
2021/11/16 00:11:15;;;;;;;60.83;33.67;;;7.10;99.30;;;;;;5014319;28;20435;-86
2021/11/16 00:13:41;;;;;;;62.30;34.20;;;7.10;99.30;;;;;;5015818;28;20041;-85
2021/11/16 00:16:07;;;;;;;56.85;32.22;;;7.10;99.40;;;;;;5014905;28;20041;-86
2021/11/16 00:18:33;;;;;;;58.28;33.15;;;7.10;99.40;;;;;;5015413;28;20371;-86
2021/11/16 00:21:00;;;;;;;60.75;33.50;;;7.10;99.40;;;;;;5014888;28;20052;-86
2021/11/16 00:23:33;;;;;;;57.17;32.13;;;7.00;99.40;;;;;;5015469;28;20448;-86
2021/11/16 00:26:01;;;;;;;55.17;31.90;;;7.10;99.40;;;;;;5014776;28;20041;-87
2021/11/16 00:28:27;;;;;;;56.35;32.50;;;7.10;99.40;;;;;;5021303;28;20083;-87
2021/11/16 00:30:53;;;;;;;57.15;33.95;;;7.10;99.40;;;;;;5015133;28;20063;-86
2021/11/16 00:33:21;;;;;;;57.50;33.13;;;7.00;99.40;;;;;;5013558;28;20045;-86
2021/11/16 00:35:48;;;;;;;56.20;32.17;;;7.00;99.40;;;;;;5015532;28;20041;-87
2021/11/16 00:38:15;;;;;;;59.63;32.97;;;7.10;99.40;;;;;;5014863;28;20057;-86
2021/11/16 00:40:43;;;;;;;54.45;31.70;;;7.00;99.40;;;;;;5014795;28;20046;-86
2021/11/16 00:43:09;;;;;;;58.78;32.90;;;7.00;99.40;;;;;;5014856;28;20046;-87
2021/11/16 00:45:37;;;;;;;56.28;31.17;;;7.10;99.40;;;;;;5015141;28;20544;-86
2021/11/16 00:48:03;;;;;;;58.30;31.10;;;7.10;99.40;;;;;;5014041;28;20048;-87
2021/11/16 00:50:30;;;;;;;57.88;32.60;;;7.00;99.40;;;;;;5014947;28;20072;-86
2021/11/16 00:52:56;;;;;;;56.03;32.80;;;7.10;99.40;;;;;;5014711;28;20136;-86
2021/11/16 00:55:21;;;;;;;57.92;32.40;;;7.00;99.30;;;;;;5014961;28;20156;-86
2021/11/16 00:57:47;;;;;;;61.95;32.03;;;7.00;99.30;;;;;;5015908;28;20503;-86
2021/11/16 01:00:16;;;;;;;56.03;31.48;;;7.00;99.30;;;;;;5006043;28;20084;-86
2021/11/16 01:02:45;;;;;;;53.50;30.67;;;7.10;99.30;;;;;;5014996;28;20128;-86
2021/11/16 01:05:12;;;;;;;58.35;31.98;;;7.00;99.30;;;;;;5015408;28;20462;-86
2021/11/16 01:07:40;;;;;;;54.92;31.27;;;7.00;99.30;;;;;;5014635;28;20071;-87
2021/11/16 01:10:08;;;;;;;57.25;31.10;;;7.00;99.30;;;;;;5015331;28;20374;-86
2021/11/16 01:12:34;;;;;;;57.58;32.03;;;7.00;99.30;;;;;;5014510;28;20488;-87
2021/11/16 01:15:00;;;;;;;55.45;30.48;;;7.00;99.20;;;;;;5014319;28;20116;-86
2021/11/16 01:17:25;;;;;;;54.53;30.60;;;7.00;99.20;;;;;;5014994;28;20041;-86
2021/11/16 01:19:52;;;;;;;57.30;31.13;;;7.00;99.20;;;;;;5017436;28;20187;-86
2021/11/16 01:22:21;;;;;;;57.63;31.23;;;6.90;99.20;;;;;;5018253;28;20072;-86
2021/11/16 01:24:46;;;;;;;54.70;31.08;;;6.90;99.30;;;;;;5019734;28;20038;-86
2021/11/16 01:27:18;;;;;;;59.28;30.42;;;6.90;99.30;;;;;;5019071;28;20032;-87
2021/11/16 01:29:46;;;;;;;56.55;29.95;;;6.90;99.30;;;;;;5017452;28;20053;-87
2021/11/16 01:32:27;;;;;;;53.42;29.08;;;6.90;99.30;;;;;;5035478;28;20074;-86
2021/11/16 01:34:54;;;;;;;55.45;29.95;;;6.90;99.40;;;;;;5004554;28;20370;-87
2021/11/16 01:37:22;;;;;;;55.25;29.08;;;6.90;99.40;;;;;;5017428;28;20195;-86
2021/11/16 01:39:47;;;;;;;54.42;28.77;;;6.90;99.40;;;;;;5018557;28;20128;-86
2021/11/16 01:42:13;;;;;;;55.40;29.10;;;6.90;99.30;;;;;;5017958;28;20132;-86
2021/11/16 01:44:39;;;;;;;51.97;29.50;;;6.90;99.20;;;;;;5035165;28;20041;-87
2021/11/16 01:47:05;;;;;;;57.17;29.90;;;6.90;99.20;;;;;;5017654;28;20492;-86
2021/11/16 01:49:30;;;;;;;51.40;29.10;;;6.90;99.20;;;;;;5018083;28;20118;-85
2021/11/16 01:51:56;;;;;;;54.72;30.23;;;6.90;99.20;;;;;;5016663;28;20037;-86
2021/11/16 01:54:22;;;;;;;48.92;29.02;;;6.90;99.30;;;;;;5018305;28;20048;-85
2021/11/16 01:56:48;;;;;;;59.65;30.17;;;6.90;99.30;;;;;;5017536;28;20072;-86
2021/11/16 01:59:18;;;;;;;53.72;30.15;;;6.90;99.30;;;;;;5018018;28;20061;-87
2021/11/16 02:01:45;;;;;;;55.17;29.27;;;6.80;99.30;;;;;;5005639;28;20417;-87
2021/11/16 02:04:12;;;;;;;57.72;30.98;;;6.80;99.30;;;;;;5008273;28;20488;-86
2021/11/16 02:06:40;;;;;;;55.33;29.73;;;6.80;99.40;;;;;;5017500;28;20068;-87
2021/11/16 02:09:09;;;;;;;53.25;29.30;;;6.90;99.40;;;;;;5018544;28;20068;-86
2021/11/16 02:11:35;;;;;;;53.97;28.40;;;6.90;99.40;;;;;;5017287;28;20050;-86
2021/11/16 02:14:03;;;;;;;50.10;28.33;;;6.90;99.30;;;;;;5017964;28;20099;-86
2021/11/16 02:16:32;;;;;;;51.83;28.52;;;6.90;99.40;;;;;;5005789;28;20045;-86
2021/11/16 02:18:58;;;;;;;56.10;29.02;;;6.90;99.40;;;;;;5017008;28;20077;-86
2021/11/16 02:21:24;;;;;;;51.88;28.17;;;6.90;99.40;;;;;;5035531;28;20448;-86
2021/11/16 02:23:50;;;;;;;55.63;28.48;;;6.90;99.40;;;;;;5017746;28;20102;-86
2021/11/16 02:26:17;;;;;;;56.97;29.27;;;6.90;99.40;;;;;;5016557;28;20425;-86
2021/11/16 02:28:44;;;;;;;50.22;28.80;;;6.90;99.40;;;;;;5017802;28;20050;-86
2021/11/16 02:31:14;;;;;;;51.00;27.90;;;6.90;99.40;;;;;;5050540;28;20065;-86
2021/11/16 02:33:40;;;;;;;52.67;27.95;;;6.90;99.40;;;;;;5040630;28;20041;-86
2021/11/16 02:36:09;;;;;;;55.65;29.95;;;6.90;99.30;;;;;;5027022;28;20094;-86
2021/11/16 02:38:35;;;;;;;51.28;27.95;;;6.90;99.40;;;;;;5011244;28;20052;-86
2021/11/16 02:41:19;;;;;;;55.15;29.63;;;6.90;99.40;;;;;;5067727;23;20053;-86
2021/11/16 02:43:46;;;;;;;52.08;28.95;;;6.90;99.30;;;;;;5022433;28;20123;-87
2021/11/16 02:46:12;;;;;;;53.13;28.48;;;6.90;99.40;;;;;;5016018;28;20111;-87
2021/11/16 02:48:38;;;;;;;55.15;28.60;;;7.00;99.40;;;;;;5030712;28;20045;-85
2021/11/16 02:51:11;;;;;;;55.63;28.75;;;6.90;99.40;;;;;;5019510;28;20124;-86
2021/11/16 02:53:41;;;;;;;57.85;28.85;;;6.90;99.40;;;;;;5029425;28;20048;-86
2021/11/16 02:56:13;;;;;;;54.85;29.65;;;6.90;99.40;;;;;;5026324;28;20132;-86
2021/11/16 02:58:45;;;;;;;52.67;28.58;;;6.90;99.30;;;;;;5021773;28;20034;-86
2021/11/16 03:01:16;;;;;;;56.65;28.75;;;6.90;99.30;;;;;;5022001;28;20069;-86
2021/11/16 03:03:42;;;;;;;54.95;28.15;;;6.90;99.30;;;;;;5025277;28;20056;-87
2021/11/16 03:06:10;;;;;;;56.05;28.73;;;6.90;99.30;;;;;;5020345;28;20489;-86
2021/11/16 03:08:39;;;;;;;56.80;28.85;;;6.90;99.30;;;;;;5035868;23;20122;-86
2021/11/16 03:11:07;;;;;;;55.42;28.00;;;6.90;99.40;;;;;;5018946;28;20085;-86
2021/11/16 03:13:37;;;;;;;59.38;29.83;;;6.90;99.30;;;;;;5023381;28;20127;-86
2021/11/16 03:16:05;;;;;;;53.03;29.33;;;6.90;99.30;;;;;;5026196;28;20048;-85
2021/11/16 03:18:30;;;;;;;56.50;28.23;;;6.90;99.30;;;;;;5024253;28;20140;-86
2021/11/16 03:20:56;;;;;;;49.67;27.98;;;6.90;99.30;;;;;;5012246;28;20119;-86
2021/11/16 03:23:23;;;;;;;52.05;28.65;;;6.90;99.30;;;;;;5010131;28;20045;-86
2021/11/16 03:25:56;;;;;;;53.38;28.45;;;6.90;99.40;;;;;;5028830;28;20405;-86
2021/11/16 03:28:25;;;;;;;58.25;29.50;;;6.90;99.30;;;;;;5014706;28;20112;-87
2021/11/16 03:30:55;;;;;;;57.03;29.30;;;6.80;99.30;;;;;;5017176;28;20493;-86
2021/11/16 03:33:25;;;;;;;53.72;29.27;;;6.80;99.40;;;;;;5019534;28;20599;-85
2021/11/16 03:35:52;;;;;;;52.67;27.45;;;6.80;99.40;;;;;;5029907;28;20390;-86
2021/11/16 03:38:20;;;;;;;53.05;28.60;;;6.80;99.40;;;;;;5023993;28;20107;-86
2021/11/16 03:40:47;;;;;;;52.28;28.02;;;6.80;99.40;;;;;;5017113;28;20045;-85
2021/11/16 03:43:15;;;;;;;55.97;28.77;;;6.80;99.50;;;;;;5026496;28;20080;-86
2021/11/16 03:45:41;;;;;;;53.08;28.73;;;6.80;99.40;;;;;;5029598;28;20045;-86
2021/11/16 03:48:08;;;;;;;52.88;27.65;;;6.80;99.40;;;;;;5016383;28;20077;-85
2021/11/16 03:50:34;;;;;;;54.85;28.38;;;6.80;99.40;;;;;;5021368;28;20090;-86
2021/11/16 03:53:01;;;;;;;52.05;27.77;;;6.80;99.40;;;;;;5032175;28;20049;-86
2021/11/16 03:55:35;;;;;;;52.78;27.50;;;6.80;99.40;;;;;;5019570;28;20045;-87
2021/11/16 03:58:03;;;;;;;56.65;28.80;;;6.80;99.40;;;;;;5026161;28;20046;-86
2021/11/16 04:00:39;;;;;;;53.22;28.00;;;6.80;99.40;;;;;;5014928;28;20041;-86
2021/11/16 04:03:06;;;;;;;53.38;27.60;;;6.80;99.40;;;;;;5020936;28;20075;-87
2021/11/16 04:05:33;;;;;;;54.80;27.88;;;6.80;99.40;;;;;;5022559;28;20056;-86
2021/11/16 04:07:59;;;;;;;51.00;27.10;;;6.80;99.40;;;;;;5023831;28;20056;-85
2021/11/16 04:10:24;;;;;;;55.95;27.58;;;6.80;99.40;;;;;;5022323;28;20037;-86
2021/11/16 04:12:51;;;;;;;55.10;28.13;;;6.80;99.40;;;;;;5031178;28;20390;-86
2021/11/16 04:15:21;;;;;;;55.08;28.42;;;6.80;99.40;;;;;;5017552;28;20052;-86
2021/11/16 04:17:47;;;;;;;54.90;27.88;;;6.80;99.40;;;;;;5024284;28;20049;-85
2021/11/16 04:20:37;;;;;;;53.70;28.10;;;6.80;99.40;;;;;;5017176;28;20103;-86
2021/11/16 04:23:06;;;;;;;55.80;27.60;;;6.80;99.40;;;;;;5031346;28;20511;-86
2021/11/16 04:25:32;;;;;;;51.65;27.42;;;6.80;99.40;;;;;;5014733;28;20047;-86
2021/11/16 04:27:59;;;;;;;54.70;28.30;;;6.80;99.40;;;;;;5018356;28;20437;-86
2021/11/16 04:30:28;;;;;;;54.03;28.63;;;6.80;99.40;;;;;;5015557;28;20037;-86
2021/11/16 04:32:54;;;;;;;52.28;27.23;;;6.80;99.40;;;;;;5014885;28;20041;-86
2021/11/16 04:35:20;;;;;;;54.10;28.27;;;6.80;99.40;;;;;;5015471;28;20038;-85
2021/11/16 04:37:50;;;;;;;55.65;28.48;;;6.80;99.40;;;;;;5015310;28;20152;-86
2021/11/16 04:40:19;;;;;;;54.33;27.30;;;6.80;99.40;;;;;;5014064;28;20045;-85
2021/11/16 04:42:46;;;;;;;53.15;28.52;;;6.80;99.40;;;;;;5014944;28;20069;-86
2021/11/16 04:45:17;;;;;;;56.80;28.40;;;6.80;99.40;;;;;;5015176;28;20429;-86
2021/11/16 04:48:05;;;;;;;54.83;28.38;;;6.80;99.40;;;;;;5006937;28;20045;-86
2021/11/16 04:59:34;;;;;;;51.13;26.50;;;6.80;99.40;;;;;;5019224;28;20053;-86
2021/11/16 05:03:35;;;;;;;57.17;27.67;;;6.80;99.40;;;;;;5018632;28;20042;-85
2021/11/16 05:06:00;;;;;;;53.92;27.67;;;6.80;99.40;;;;;;5019154;28;20041;-86
2021/11/16 05:08:26;;;;;;;54.42;26.83;;;6.80;99.40;;;;;;5017786;28;20463;-86
2021/11/16 05:10:52;;;;;;;50.45;27.75;;;6.80;99.30;;;;;;5018546;28;20432;-85
2021/11/16 05:13:17;;;;;;;54.28;27.45;;;6.80;99.30;;;;;;5018854;28;20049;-86
2021/11/16 05:15:44;;;;;;;52.15;27.17;;;6.80;99.30;;;;;;5018721;28;20077;-86
2021/11/16 05:18:09;;;;;;;56.45;28.08;;;6.80;99.40;;;;;;5018957;28;20046;-86
2021/11/16 05:20:35;;;;;;;52.33;27.48;;;6.80;99.40;;;;;;5017903;28;20053;-85
2021/11/16 05:23:01;;;;;;;54.10;27.25;;;6.80;99.40;;;;;;5018223;28;20536;-85
2021/11/16 05:25:26;;;;;;;52.00;26.75;;;6.80;99.40;;;;;;5019150;28;20042;-85
2021/11/16 05:27:52;;;;;;;55.85;27.77;;;6.80;99.40;;;;;;5025006;28;20055;-86
2021/11/16 05:30:18;;;;;;;57.40;28.48;;;6.80;99.40;;;;;;5030097;28;20374;-85
2021/11/16 05:32:44;;;;;;;53.20;27.27;;;6.70;99.40;;;;;;5018864;28;20128;-84
2021/11/16 05:35:15;;;;;;;51.72;26.88;;;6.80;99.30;;;;;;5017389;28;20042;-86
2021/11/16 05:37:41;;;;;;;55.13;27.45;;;6.80;99.40;;;;;;5018372;28;20049;-86
2021/11/16 05:40:08;;;;;;;49.67;25.80;;;6.70;99.30;;;;;;5017877;28;20041;-85
2021/11/16 05:42:34;;;;;;;54.92;28.33;;;6.80;99.30;;;;;;5017809;28;20523;-83
2021/11/16 05:45:03;;;;;;;54.47;26.80;;;6.70;99.30;;;;;;5018547;28;20081;-86
2021/11/16 05:47:32;;;;;;;53.20;26.85;;;6.70;99.40;;;;;;5017827;28;20049;-85
2021/11/16 05:49:58;;;;;;;55.72;27.42;;;6.70;99.40;;;;;;5017316;28;20048;-85
2021/11/16 05:52:24;;;;;;;54.38;26.33;;;6.70;99.30;;;;;;5018207;28;20128;-86
2021/11/16 05:54:52;;;;;;;53.72;27.33;;;6.70;99.30;;;;;;5017945;28;20045;-85
2021/11/16 05:57:18;;;;;;;55.17;27.75;;;6.70;99.40;;;;;;5017473;28;20045;-85
2021/11/16 05:59:43;;;;;;;51.03;26.05;;;6.80;99.40;;;;;;5018269;28;20048;-85
2021/11/16 06:02:11;;;;;;;56.85;27.75;;;6.70;99.40;;;;;;5017526;28;20453;-86
2021/11/16 06:04:37;;;;;;;54.03;27.30;;;6.70;99.40;;;;;;5015889;28;20056;-85
2021/11/16 06:07:04;;;;;;;57.13;28.23;;;6.70;99.40;;;;;;5016218;28;20038;-85
2021/11/16 06:09:31;;;;;;;52.80;27.23;;;6.70;99.40;;;;;;5030906;28;20131;-85
2021/11/16 06:11:59;;;;;;;66.35;30.95;;;6.80;99.40;;;;;;5019623;28;20049;-85
2021/11/16 06:14:25;;;;;;;55.58;28.10;;;6.80;99.40;;;;;;5035194;28;20045;-86
2021/11/16 06:16:52;;;;;;;58.22;27.58;;;6.80;99.30;;;;;;5036434;28;20049;-87
2021/11/16 06:19:19;;;;;;;56.70;27.90;;;6.80;99.30;;;;;;5025656;28;20057;-86
2021/11/16 06:21:45;;;;;;;53.08;27.55;;;6.80;99.30;;;;;;5024884;28;20255;-85
2021/11/16 06:24:11;;;;;;;56.88;27.83;;;6.70;99.30;;;;;;5034199;28;20099;-85
2021/11/16 06:26:37;;;;;;;54.70;26.55;;;6.70;99.40;;;;;;5024539;28;20084;-86
2021/11/16 06:29:12;;;;;;;52.38;27.27;;;6.80;99.40;;;;;;5015712;28;20053;-86
2021/11/16 06:31:37;;;;;;;55.78;27.90;;;6.70;99.40;;;;;;5030976;28;20144;-86
2021/11/16 06:34:05;;;;;;;54.67;27.65;;;6.80;99.40;;;;;;5019859;28;20469;-84
2021/11/16 06:36:36;;;;;;;54.42;27.35;;;6.70;99.40;;;;;;5032065;28;20049;-84
2021/11/16 06:39:26;;;;;;;59.42;28.13;;;6.70;99.40;;;;;;5016414;28;20103;-84
2021/11/16 06:41:59;;;;;;;53.45;26.88;;;6.80;99.40;;;;;;5002882;28;20042;-88
2021/11/16 06:44:40;;;;;;;;;;;6.70;99.40;;;;;;5018113;28;20501;-85
2021/11/16 06:47:06;;;;;;;53.55;26.90;;;6.70;99.00;;;;;;5016010;28;20412;-85
2021/11/16 06:49:39;;;;;;;55.55;27.15;;;6.70;99.40;;;;;;5018700;28;20076;-85
2021/11/16 06:52:10;;;;;;;;;;;6.70;99.40;;;;;;5030874;28;20033;-84
2021/11/16 06:54:48;;;;;;;53.53;26.45;;;6.60;99.00;;;;;;5024881;28;19925;-85
2021/11/16 06:57:14;;;;;;;52.22;26.05;;;6.70;99.40;;;;;;5016138;28;20431;-85
2021/11/16 06:59:43;;;;;;;57.42;26.63;;;6.70;99.40;;;;;;5032279;28;20037;-85
2021/11/16 07:02:23;;;;;;;54.50;27.10;;;6.70;99.40;;;;;;5016703;28;20496;-85
2021/11/16 07:04:48;;;;;;;56.78;27.67;;;6.70;99.40;;;;;;5018169;28;20055;-85
2021/11/16 07:07:14;;;;;;;53.25;26.42;;;6.70;99.40;;;;;;5015736;28;20053;-85
2021/11/16 07:09:41;;;;;;;58.30;27.08;;;6.70;99.40;;;;;;5022419;28;20134;-85
2021/11/16 07:12:24;;;;;;;54.53;26.67;;;6.70;99.50;;;;;;5023808;28;20037;-85
2021/11/16 07:14:50;;;;;;;58.67;27.13;;;6.70;99.50;;;;;;5021147;28;20175;-86
2021/11/16 07:17:17;;;;;;;55.63;26.85;;;6.70;99.50;;;;;;5010426;28;20080;-86
2021/11/16 07:19:54;;;;;;;52.97;25.92;;;6.70;99.50;;;;;;5019340;28;20048;-86
2021/11/16 07:22:32;;;;;;;53.08;26.58;;;6.70;99.60;;;;;;5016573;28;20146;-86
2021/11/16 07:25:08;;;;;;;55.83;26.27;;;6.70;99.60;;;;;;5029871;28;20408;-84
2021/11/16 07:27:42;;;;;;;59.72;27.90;;;6.70;99.60;;;;;;5013928;28;20484;-85
2021/11/16 07:30:10;;;;;;;57.95;27.80;;;6.70;99.60;;;;;;5022402;28;20369;-86
2021/11/16 07:32:48;;;;;;;62.40;27.42;;;6.70;99.60;;;;;;5025018;28;20049;-87
2021/11/16 07:35:15;;;;;;;55.78;27.25;;;6.70;99.50;;;;;;5027538;28;20033;-86
2021/11/16 07:37:43;;;;;;;54.03;26.95;;;6.70;99.60;;;;;;5008826;28;20069;-87
2021/11/16 07:40:12;;;;;;;52.83;26.75;;;6.70;99.50;;;;;;5012822;28;20049;-86
2021/11/16 07:43:26;;;;;;;52.65;25.60;;;6.70;99.50;;;;;;5026650;28;20045;-87
2021/11/16 07:45:55;;;;;;;54.90;26.40;;;6.70;99.40;;;;;;5005760;28;20053;-86
2021/11/16 07:48:25;;;;;;;57.55;26.92;;;6.70;99.50;;;;;;5025625;28;20049;-86
2021/11/16 07:51:16;;;;;;;56.42;27.40;;;6.70;99.40;;;;;;5014818;28;20191;-86
2021/11/16 07:53:44;;;;;;;57.92;26.65;;;6.70;99.40;;;;;;5003905;28;20029;-83
2021/11/16 07:56:13;;;;;;;56.53;26.75;;;6.70;99.40;;;;;;5027401;28;20030;-86
2021/11/16 07:58:59;;;;;;;57.63;27.05;;;6.70;99.50;;;;;;5025671;28;20104;-86
2021/11/16 08:06:51;;;;;;;59.03;26.58;;;6.70;99.50;;;;;;5025643;28;20053;-86
2021/11/16 08:15:10;;;;;;;52.88;25.88;;;6.60;99.10;;;;;;5023662;28;19920;-84
2021/11/16 08:17:37;;;;;;;56.13;26.60;;;6.60;99.40;;;;;;5016976;28;20567;-84
2021/11/16 08:20:14;;;;;;;56.08;25.85;;;6.70;99.50;;;;;;5011857;28;20129;-84
2021/11/16 08:22:42;;;;;;;56.90;26.60;;;6.70;99.50;;;;;;5027556;28;20059;-84
2021/11/16 08:25:09;;;;;;;55.97;26.98;;;6.70;99.50;;;;;;5018784;28;20099;-84
2021/11/16 08:27:38;;;;;;;55.88;25.98;;;6.70;99.50;;;;;;5031535;28;20045;-84
2021/11/16 08:30:06;;;;;;;55.72;25.70;;;6.70;99.50;;;;;;5021513;28;20354;-84
2021/11/16 08:32:36;;;;;;;57.58;26.98;;;6.70;99.50;;;;;;5024537;28;20053;-84
2021/11/16 08:35:08;;;;;;;53.55;25.20;;;6.70;99.50;;;;;;5027012;28;20547;-84
2021/11/16 08:37:38;;;;;;;52.03;25.02;;;6.70;99.50;;;;;;5024771;23;20417;-84
2021/11/16 08:40:19;;;;;;;55.22;26.05;;;6.70;99.50;;;;;;5011414;28;20510;-84
2021/11/16 08:43:01;;;;;;;57.55;26.30;;;6.80;99.50;;;;;;5017215;28;20553;-84
2021/11/16 08:45:33;;;;;;;52.67;25.33;;;6.70;99.40;;;;;;5027615;28;20101;-84
2021/11/16 08:48:09;;;;;;;53.42;24.15;;;6.70;99.30;;;;;;5015752;28;20072;-85
2021/11/16 08:50:44;;;;;;;53.10;25.08;;;6.70;99.30;;;;;;5009366;28;20038;-85
2021/11/16 08:53:13;;;;;;;52.47;24.17;;;6.70;99.30;;;;;;5008878;28;20045;-84
2021/11/16 08:55:41;;;;;;;51.25;24.25;;;6.70;99.30;;;;;;5031053;28;20049;-85
2021/11/16 08:58:12;;;;;;;51.70;25.35;;;6.70;99.30;;;;;;5019729;28;20127;-85
2021/11/16 09:00:46;;;;;;;54.20;25.67;;;6.60;99.30;;;;;;5031847;28;20488;-85
2021/11/16 09:03:33;;;;;;;52.30;24.63;;;6.60;99.40;;;;;;5010224;28;20045;-85
2021/11/16 09:06:02;;;;;;;58.25;25.75;;;6.60;99.30;;;;;;5009227;28;20041;-85
2021/11/16 09:08:33;;;;;;;54.90;24.98;;;6.60;99.40;;;;;;5024585;28;20052;-85
2021/11/16 09:11:10;;;;;;;50.53;24.85;;;6.70;99.50;;;;;;5069916;23;20050;-85
2021/11/16 09:13:48;;;;;;;54.55;24.90;;;6.60;99.50;;;;;;5026354;28;20045;-86
2021/11/16 09:16:20;;;;;;;55.88;24.58;;;6.60;99.60;;;;;;5024648;28;20393;-85
2021/11/16 09:18:53;;;;;;;56.30;25.83;;;6.70;99.60;;;;;;5008801;28;20120;-85
2021/11/16 09:21:47;;;;;;;52.53;24.65;;;6.70;99.60;;;;;;5023402;28;20053;-85
2021/11/16 09:24:19;;;;;;;56.42;25.10;;;6.70;99.50;;;;;;5020737;28;20037;-86
2021/11/16 09:29:18;;;;;;;53.75;24.60;;;6.70;99.60;;;;;;5018461;28;20599;-86
2021/11/16 09:31:56;;;;;;;54.15;23.90;;;6.70;99.60;;;;;;5030519;28;20467;-86
2021/11/16 09:34:24;;;;;;;51.00;23.92;;;6.70;99.60;;;;;;5019314;28;20374;-85
2021/11/16 09:37:10;;;;;;;55.67;25.67;;;6.70;99.60;;;;;;5018162;28;20136;-85
2021/11/16 09:39:45;;;;;;;57.08;26.40;;;6.70;99.50;;;;;;5014239;28;20370;-85
2021/11/16 09:42:36;;;;;;;52.72;24.60;;;6.70;99.50;;;;;;5015599;28;20078;-86
2021/11/16 09:45:09;;;;;;;54.58;25.17;;;6.70;99.40;;;;;;5006104;28;20071;-86
2021/11/16 09:47:38;;;;;;;53.92;24.63;;;6.70;99.50;;;;;;5012533;28;20045;-85
2021/11/16 09:50:09;;;;;;;50.60;24.45;;;6.70;99.50;;;;;;5013941;28;20041;-86
2021/11/16 09:52:46;;;;;;;55.10;25.95;;;6.70;99.60;;;;;;5027968;28;20132;-87
2021/11/16 09:55:28;;;;;;;53.70;24.13;;;6.70;99.60;;;;;;5017810;28;20524;-87
2021/11/16 09:58:03;;;;;;;53.33;26.02;;;6.60;99.50;;;;;;5019127;28;20060;-86
2021/11/16 10:00:34;;;;;;;53.30;24.35;;;6.60;99.50;;;;;;5033588;28;20045;-86
2021/11/16 10:03:04;;;;;;;56.13;26.05;;;6.60;99.50;;;;;;5030465;28;20045;-86
2021/11/16 10:05:38;;;;;;;57.75;25.42;;;6.60;99.50;;;;;;5020167;28;20049;-86
2021/11/16 10:08:04;;;;;;;53.08;24.70;;;6.60;99.40;;;;;;5011224;28;20052;-86
2021/11/16 10:10:34;;;;;;;59.67;25.15;;;6.60;99.30;;;;;;5004524;28;20062;-86
2021/11/16 10:13:07;;;;;;;48.20;23.30;;;6.60;99.40;;;;;;4993322;28;20414;-86
2021/11/16 10:15:41;;;;;;;50.70;24.53;;;6.60;99.40;;;;;;4991923;28;20035;-85
2021/11/16 10:18:07;;;;;;;51.38;24.20;;;6.60;99.40;;;;;;4991315;28;20042;-85
2021/11/16 10:20:36;;;;;;;52.00;24.10;;;6.60;99.40;;;;;;4998506;28;20046;-85
2021/11/16 10:23:06;;;;;;;54.40;24.50;;;6.60;99.40;;;;;;5007597;28;20129;-85
2021/11/16 10:25:32;;;;;;;56.28;25.42;;;6.60;99.50;;;;;;4997145;28;20545;-85
2021/11/16 10:28:09;;;;;;;57.05;24.77;;;6.60;99.40;;;;;;5004617;28;20038;-85
2021/11/16 10:30:35;;;;;;;52.67;23.60;;;6.60;99.40;;;;;;4993803;28;20053;-84
2021/11/16 10:33:22;;;;;;;54.08;24.08;;;6.60;99.40;;;;;;4987404;28;20035;-84
2021/11/16 10:35:47;;;;;;;54.58;24.70;;;6.60;99.30;;;;;;4983075;28;20049;-85
2021/11/16 10:38:22;;;;;;;50.05;23.55;;;6.60;99.40;;;;;;5004101;28;20034;-84
2021/11/16 10:40:49;;;;;;;52.35;23.92;;;6.60;99.40;;;;;;5006419;28;20103;-84
2021/11/16 10:43:15;;;;;;;50.33;23.90;;;6.60;99.40;;;;;;4997544;28;20134;-84
2021/11/16 10:45:52;;;;;;;51.03;23.05;;;6.60;99.40;;;;;;4988583;28;20401;-84
2021/11/16 10:48:26;;;;;;;53.90;23.77;;;6.60;99.50;;;;;;4998342;28;20080;-84
2021/11/16 10:50:52;;;;;;;51.80;23.95;;;6.60;99.50;;;;;;5000510;28;20050;-84
2021/11/16 10:53:21;;;;;;;50.10;23.40;;;6.60;99.50;;;;;;4992799;28;20038;-84
2021/11/16 10:55:52;;;;;;;52.25;22.90;;;6.60;99.50;;;;;;5008906;28;20078;-85
2021/11/16 10:58:21;;;;;;;51.30;22.83;;;6.60;99.40;;;;;;4988480;28;20093;-84
2021/11/16 11:00:52;;;;;;;49.35;23.35;;;6.60;99.40;;;;;;4996857;28;20038;-85
2021/11/16 11:03:33;;;;;;;47.38;21.27;;;6.60;99.40;;;;;;5009098;28;20053;-85
2021/11/16 11:06:09;;;;;;;50.80;22.70;;;6.60;99.50;;;;;;4980545;28;20054;-84
2021/11/16 11:08:47;;;;;;;46.13;21.58;;;6.60;99.50;;;;;;4990078;28;20046;-84
2021/11/16 11:11:23;;;;;;;48.50;21.33;;;6.60;99.50;;;;;;5002336;28;20098;-85
2021/11/16 11:14:02;;;;;;;45.22;22.10;;;6.60;99.60;;;;;;4982357;28;20676;-86
2021/11/16 11:16:29;;;;;;;48.22;22.15;;;6.60;99.60;;;;;;5007647;28;20038;-86
2021/11/16 11:18:55;;;;;;;48.42;21.92;;;6.60;99.60;;;;;;4998792;28;20065;-84
2021/11/16 11:21:27;;;;;;;45.65;21.45;;;6.60;99.50;;;;;;4990755;28;20417;-85
2021/11/16 11:23:56;;;;;;;50.28;22.55;;;6.60;99.80;;;;;;4992999;28;20053;-85
2021/11/16 11:26:34;;;;;;;47.85;22.45;;;6.60;99.60;;;;;;5004151;28;20490;-85
2021/11/16 11:29:18;;;;;;;42.20;20.02;;;6.60;99.40;;;;;;4983935;28;20050;-85
2021/11/16 11:31:47;;;;;;;49.17;21.38;;;6.60;99.40;;;;;;5002754;28;20085;-84
2021/11/16 11:34:13;;;;;;;47.55;21.10;;;6.60;99.40;;;;;;4991217;28;20077;-85
2021/11/16 11:36:40;;;;;;;48.45;21.70;;;6.60;99.50;;;;;;4991935;28;20086;-85
2021/11/16 11:39:15;;;;;;;45.55;21.88;;;6.60;99.50;;;;;;4994986;28;20046;-85
2021/11/16 11:41:53;;;;;;;50.78;22.95;;;6.60;99.50;;;;;;4999404;28;20050;-84
2021/11/16 11:44:20;;;;;;;45.50;20.67;;;6.60;99.40;;;;;;4998504;28;20042;-85
2021/11/16 11:46:48;;;;;;;44.58;21.27;;;6.60;99.40;;;;;;5003108;28;20054;-84
2021/11/16 11:49:14;;;;;;;45.88;21.20;;;6.70;99.40;;;;;;4991094;28;20121;-85
2021/11/16 11:51:41;;;;;;;51.55;20.65;;;6.60;99.40;;;;;;5000085;28;20046;-85
2021/11/16 11:54:07;;;;;;;45.47;21.25;;;6.70;99.50;;;;;;5000212;28;20057;-85
2021/11/16 11:56:35;;;;;;;46.58;20.65;;;6.70;99.50;;;;;;5001258;28;20042;-85
2021/11/16 11:59:02;;;;;;;42.85;19.98;;;6.60;99.50;;;;;;5008106;28;20749;-84
2021/11/16 12:01:28;;;;;;;50.00;22.48;;;6.70;99.50;;;;;;4998048;28;20046;-84
2021/11/16 12:03:59;;;;;;;47.95;20.95;;;6.70;99.50;;;;;;4997202;28;20115;-85
2021/11/16 12:06:29;;;;;;;48.60;21.02;;;6.70;99.40;;;;;;5006896;28;20112;-84
2021/11/16 12:08:57;;;;;;;46.00;21.10;;;6.70;99.40;;;;;;4994483;28;20053;-85
2021/11/16 12:11:23;;;;;;;45.88;21.08;;;6.70;99.40;;;;;;5001693;28;20128;-83
2021/11/16 12:13:51;;;;;;;51.25;22.83;;;6.70;99.50;;;;;;4998414;28;20156;-84
2021/11/16 12:16:24;;;;;;;55.28;24.02;;;6.70;99.50;;;;;;4997722;28;20042;-84
2021/11/16 12:19:01;;;;;;;50.55;21.27;;;6.70;99.40;;;;;;5003472;28;20045;-84
2021/11/16 12:21:36;;;;;;;52.75;22.83;;;6.70;99.40;;;;;;5004810;28;20056;-85
2021/11/16 12:24:05;;;;;;;49.30;21.30;;;6.70;99.40;;;;;;4992509;28;20046;-86
2021/11/16 12:26:37;;;;;;;45.75;21.30;;;6.70;99.40;;;;;;5007320;28;20064;-86
2021/11/16 12:29:12;;;;;;;47.80;21.20;;;6.70;99.50;;;;;;4994355;28;20214;-86
2021/11/16 12:31:38;;;;;;;47.47;21.90;;;6.70;99.50;;;;;;4989692;28;20047;-86
2021/11/16 12:34:04;;;;;;;45.97;20.52;;;6.70;99.50;;;;;;5001014;28;20064;-86
2021/11/16 12:36:32;;;;;;;46.95;21.45;;;6.70;99.50;;;;;;5007216;28;20049;-86
2021/11/16 12:39:13;;;;;;;48.60;21.95;;;6.70;99.60;;;;;;4995188;28;20045;-85
2021/11/16 12:41:41;;;;;;;43.95;20.58;;;6.70;99.60;;;;;;4992045;28;20053;-86
2021/11/16 12:44:47;;;;;;;44.13;19.48;;;6.70;99.50;;;;;;5027252;23;20046;-85
2021/11/16 12:47:25;;;;;;;45.55;20.67;;;6.60;99.30;;;;;;4989338;28;20141;-86
2021/11/16 12:50:11;;;;;;;44.95;20.17;;;6.70;99.50;;;;;;4993185;28;20060;-86
2021/11/16 12:52:49;;;;;;;40.15;20.08;;;6.60;99.50;;;;;;5003145;28;20124;-86
2021/11/16 12:55:24;;;;;;;46.42;20.52;;;6.60;99.50;;;;;;4997758;28;20042;-87
2021/11/16 12:57:50;;;;;;;42.97;19.90;;;6.60;99.50;;;;;;4995145;28;20042;-85
2021/11/16 13:00:17;;;;;;;41.38;19.38;;;6.60;99.50;;;;;;4994331;28;20046;-85
2021/11/16 13:02:53;;;;;;;45.70;20.42;;;6.70;99.50;;;;;;4991663;28;20050;-86
2021/11/16 13:05:29;;;;;;;43.45;20.15;;;6.70;99.60;;;;;;5008954;28;20049;-85
2021/11/16 13:07:57;;;;;;;46.92;20.67;;;6.70;99.90;;;;;;5000322;28;20049;-86
2021/11/16 13:10:29;;;;;;;43.03;19.63;;;6.70;99.70;;;;;;4996990;28;20049;-85
2021/11/16 13:13:13;;;;;;;44.15;20.08;;;6.70;99.60;;;;;;5011394;28;20067;-85
2021/11/16 13:15:42;;;;;;;41.92;19.95;;;6.70;99.60;;;;;;5001320;28;20049;-85
2021/11/16 13:18:12;;;;;;;44.88;20.40;;;6.70;99.70;;;;;;4990655;28;20041;-85